Bluff City, Kansas
Current Conditions -  °F | °C
As of 5:53 AM on Wednesday 28 Jan 2015 (Local Time) from KICT Reporting Station
Clear Clear  
Wind Chill: 33°   Ceiling: Unl
Heat Index: 39°   Visibility: 10mi
Dew Point: 32°   Wind: 8mph
Humidity: 76%   Direction: 180°S
Pressure: 29.91"   Gusts: NA
Location:  37.08°N, 97.88°W
Report Text: KICT 281153Z 18007KT 10SM CLR 04/00 A2991 RMK AO2 SLP126 T00390000 10083 20033 56014
Loading
Personal Weather Stations






























Interactive Weather Map New forecast layout! Learn more

10-Day Weather Forecast

Advertisements
Track Severe Weather on mobile